CheckWX is a tool to help pilots better visualize weather data.  It is not intended as a substitute for an official pre-flight weather briefing.

03:23:01 UTC

KSTC TAF
St Cloud Regional Airport
St Cloud, Minnesota, USA
KSTC 140520Z 1406/1506 18013KT P6SM BKN050 FM141300 31009G16KT 6SM -SHRA VCTS BKN040CB TEMPO 1414/1418 4SM -TSRA BR BKN040CB FM142000 29008KT P6SM OVC050 FM150100 25004KT P6SM SKC

Jul-14@
06:00 UTC

Jul-14 @ 06:00 UTC

Jul-14@
13:00 UTC

Jul-14 @ 13:00 UTC

TAF KSTC 140520Z 1406/1506 18013KT P6SM BKN050

Expired

Wind
  • 180° at 13 KTS
Cloud Levels
  • Broken at 5,000' AGL

Jul-14@
13:00 UTC

Jul-14 @ 13:00 UTC

Jul-14@
20:00 UTC

Jul-14 @ 20:00 UTC

FM141300 31009G16KT 6SM -SHRA VCTS BKN040CB

Expired

Wind
  • 310° at 9 KTS
  • {Gusting to 16 KTS
Conditions
Light Showers, Rain, Area Thunderstorm
Cloud Levels
  • Broken at 4,000' AGL

Jul-14@
14:00 UTC

Jul-14 @ 14:00 UTC

Jul-14@
18:00 UTC

Jul-14 @ 18:00 UTC

TEMPO 1414/1418 4SM -TSRA BR BKN040CB

Expired

Conditions
Light Thunderstorm, Rain, Mist
Cloud Levels
  • Broken at 4,000' AGL

Jul-14@
20:00 UTC

Jul-14 @ 20:00 UTC

Jul-15@
01:00 UTC

Jul-15 @ 01:00 UTC

FM142000 29008KT P6SM OVC050

Expired

Wind
  • 290° at 8 KTS
Cloud Levels
  • Overcast at 5,000' AGL

Jul-15@
01:00 UTC

Jul-15 @ 01:00 UTC

Jul-15@
06:00 UTC

Jul-15 @ 06:00 UTC

FM150100 25004KT P6SM SKC

From

From Standard forecast or significant change

Wind
  • 250° at 4 KTS
Cloud Levels
  • Clear skies